createdAt,value
2022-09-10T00:01:30.525Z,5.05
2022-09-10T00:03:59.177Z,5.75
2022-09-10T00:06:27.945Z,7.30
2022-09-10T00:09:00.511Z,6.82
2022-09-10T00:11:32.479Z,5.72
2022-09-10T00:14:01.782Z,5.97
2022-09-10T00:16:31.175Z,3.70
2022-09-10T00:19:01.289Z,6.40
2022-09-10T00:21:30.185Z,5.53
2022-09-10T00:23:58.067Z,4.63
2022-09-10T00:26:35.309Z,5.30
2022-09-10T00:29:02.810Z,3.35
2022-09-10T00:31:32.811Z,6.07
2022-09-10T00:34:03.073Z,4.75
2022-09-10T00:36:40.358Z,2.47
2022-09-10T00:39:15.235Z,5.57
2022-09-10T00:41:46.197Z,3.10
2022-09-10T00:44:40.981Z,3.03
2022-09-10T00:47:19.915Z,3.42
2022-09-10T00:50:17.105Z,3.85
2022-09-10T00:52:47.532Z,2.70
2022-09-10T00:55:16.877Z,1.83
2022-09-10T00:57:47.327Z,2.58
2022-09-10T01:00:15.948Z,2.75
2022-09-10T01:02:44.334Z,2.60
2022-09-10T01:05:12.800Z,2.15
2022-09-10T01:07:41.115Z,3.67
2022-09-10T01:10:18.345Z,1.75
2022-09-10T01:13:16.149Z,1.52
2022-09-10T01:16:19.005Z,3.25
2022-09-10T01:19:10.905Z,1.88
2022-09-10T01:22:01.091Z,3.15
2022-09-10T01:24:34.237Z,3.80
2022-09-10T01:27:55.608Z,3.97
2022-09-10T01:30:37.259Z,3.92
2022-09-10T01:33:24.839Z,3.92
2022-09-10T01:35:57.983Z,5.72
2022-09-10T01:38:35.588Z,5.43
2022-09-10T01:41:03.194Z,5.15
2022-09-10T01:43:31.252Z,4.32
2022-09-10T01:46:04.194Z,5.57
2022-09-10T01:49:11.592Z,7.30
2022-09-10T01:52:01.158Z,9.55
2022-09-10T01:55:12.726Z,4.38
2022-09-10T01:58:04.327Z,7.50
2022-09-10T02:00:35.416Z,4.53
2022-09-10T02:03:11.437Z,3.35
2022-09-10T02:05:42.450Z,2.08
2022-09-10T02:08:23.479Z,5.60
2022-09-10T02:10:59.399Z,3.60
2022-09-10T02:13:29.992Z,3.90
2022-09-10T02:15:59.583Z,4.20
2022-09-10T02:18:36.042Z,3.33
2022-09-10T02:21:03.727Z,2.72
2022-09-10T02:23:44.743Z,5.38
2022-09-10T02:26:14.554Z,3.38
2022-09-10T02:28:45.835Z,5.18
2022-09-10T02:31:13.908Z,3.67
2022-09-10T02:33:41.198Z,5.18
2022-09-10T02:36:11.601Z,3.10
2022-09-10T02:38:38.959Z,4.20
2022-09-10T02:41:06.236Z,3.75
2022-09-10T02:43:36.086Z,6.30
2022-09-10T02:46:03.726Z,3.78
2022-09-10T02:48:31.240Z,3.72
2022-09-10T02:50:58.951Z,4.00
2022-09-10T02:53:26.261Z,3.60
2022-09-10T02:55:54.447Z,4.93
2022-09-10T02:58:21.712Z,4.03
2022-09-10T03:00:48.987Z,5.10
2022-09-10T03:03:17.307Z,3.85
2022-09-10T03:05:44.797Z,3.58
2022-09-10T03:08:12.073Z,3.60
2022-09-10T03:10:39.553Z,4.40
2022-09-10T03:13:06.969Z,7.07
2022-09-10T03:15:34.278Z,5.60
2022-09-10T03:18:01.502Z,5.40
2022-09-10T03:20:28.787Z,3.60
2022-09-10T03:22:57.315Z,3.72
2022-09-10T03:25:24.666Z,4.55
2022-09-10T03:27:52.431Z,5.05
2022-09-10T03:30:21.277Z,5.82
2022-09-10T03:32:50.349Z,7.82
2022-09-10T03:35:18.390Z,6.53
2022-09-10T03:37:45.707Z,5.18
2022-09-10T03:40:13.024Z,3.63
2022-09-10T03:42:40.351Z,5.72
2022-09-10T03:45:08.562Z,3.88
2022-09-10T03:47:37.739Z,5.65
2022-09-10T03:50:06.506Z,5.97
2022-09-10T03:52:33.772Z,5.90
2022-09-10T03:55:00.999Z,4.15
2022-09-10T03:57:28.224Z,5.22
2022-09-10T03:59:56.744Z,6.13
2022-09-10T04:02:24.064Z,4.47
2022-09-10T04:04:51.349Z,4.43
2022-09-10T04:07:18.597Z,3.45
2022-09-10T04:09:46.253Z,4.22
2022-09-10T04:12:13.443Z,4.68
2022-09-10T04:14:40.736Z,4.78
2022-09-10T04:17:07.947Z,5.47
2022-09-10T04:19:35.497Z,7.13
2022-09-10T04:22:03.146Z,7.60
2022-09-10T04:24:30.702Z,5.47
2022-09-10T04:26:59.122Z,9.00
2022-09-10T04:29:26.352Z,7.72
2022-09-10T04:31:55.362Z,7.05
2022-09-10T04:34:22.874Z,7.43
2022-09-10T04:36:50.196Z,7.00
2022-09-10T04:39:17.614Z,5.25
2022-09-10T04:41:44.851Z,5.35
2022-09-10T04:44:12.100Z,7.25
2022-09-10T04:46:39.441Z,5.93
2022-09-10T04:49:06.935Z,6.68
2022-09-10T04:51:34.141Z,5.78
2022-09-10T04:54:01.878Z,4.50
2022-09-10T04:56:29.479Z,5.65
2022-09-10T04:58:56.752Z,7.72
2022-09-10T05:01:24.048Z,5.50
2022-09-10T05:03:51.342Z,5.88
2022-09-10T05:06:18.553Z,5.38
2022-09-10T05:08:45.756Z,4.43
2022-09-10T05:11:13.304Z,5.47
2022-09-10T05:13:41.604Z,7.97
2022-09-10T05:16:08.917Z,7.68
2022-09-10T05:18:36.304Z,4.68
2022-09-10T05:21:05.362Z,7.45
2022-09-10T05:23:33.008Z,6.43
2022-09-10T05:26:00.225Z,7.63
2022-09-10T05:28:27.521Z,6.35
2022-09-10T05:30:54.772Z,6.25
2022-09-10T05:33:22.189Z,6.20
2022-09-10T05:35:53.080Z,5.28
2022-09-10T05:38:21.003Z,6.43
2022-09-10T05:40:49.125Z,6.88
2022-09-10T05:43:16.606Z,6.72
2022-09-10T05:45:43.983Z,6.85
2022-09-10T05:48:11.366Z,5.43
2022-09-10T05:50:38.757Z,3.28
2022-09-10T05:53:06.448Z,11.85
2022-09-10T05:55:33.805Z,7.80
2022-09-10T05:58:01.273Z,4.85
2022-09-10T06:00:28.770Z,5.85
2022-09-10T06:02:57.459Z,4.78
2022-09-10T06:05:24.928Z,6.28
2022-09-10T06:07:52.445Z,5.50
2022-09-10T06:10:20.113Z,6.75
2022-09-10T06:12:52.149Z,9.32
2022-09-10T06:15:21.295Z,7.95
2022-09-10T06:17:48.675Z,4.35
2022-09-10T06:20:16.095Z,8.25
2022-09-10T06:22:43.479Z,7.35
2022-09-10T06:25:10.842Z,5.40
2022-09-10T06:27:38.390Z,3.97
2022-09-10T06:30:06.455Z,7.50
2022-09-10T06:32:33.717Z,6.90
2022-09-10T06:35:00.969Z,5.20
2022-09-10T06:37:28.260Z,7.60
2022-09-10T06:39:55.605Z,5.00
2022-09-10T06:42:23.987Z,5.30
2022-09-10T06:44:51.437Z,4.63
2022-09-10T06:48:01.114Z,4.93
2022-09-10T06:50:07.079Z,5.72
2022-09-10T06:52:34.297Z,5.53
2022-09-10T06:55:01.540Z,5.97
2022-09-10T06:57:29.459Z,5.30
2022-09-10T06:59:56.699Z,6.25
2022-09-10T07:02:24.141Z,3.67
2022-09-10T07:04:51.443Z,7.28
2022-09-10T07:07:20.220Z,7.13
2022-09-10T07:09:47.462Z,4.38
2022-09-10T07:12:14.724Z,8.35
2022-09-10T07:14:42.427Z,5.80
2022-09-10T07:17:09.641Z,7.40
2022-09-10T07:19:37.771Z,5.75
2022-09-10T07:22:05.261Z,4.85
2022-09-10T07:24:32.556Z,5.63
2022-09-10T07:27:00.132Z,5.82
2022-09-10T07:29:29.868Z,6.57
2022-09-10T07:31:57.152Z,3.72
2022-09-10T07:34:24.725Z,5.10
2022-09-10T07:36:52.060Z,4.63
2022-09-10T07:39:22.413Z,4.70
2022-09-10T07:41:53.495Z,3.25
2022-09-10T07:44:20.970Z,3.33
2022-09-10T07:46:48.171Z,4.32
2022-09-10T07:49:15.429Z,2.92
2022-09-10T07:51:42.679Z,4.57
2022-09-10T07:54:09.847Z,4.47
2022-09-10T07:56:37.973Z,5.60
2022-09-10T07:59:05.181Z,6.47
2022-09-10T08:01:32.732Z,4.50
2022-09-10T08:04:00.469Z,6.15
2022-09-10T08:06:27.720Z,3.97
2022-09-10T08:08:55.330Z,2.75
2022-09-10T08:11:22.614Z,2.85
2022-09-10T08:13:52.731Z,4.45
2022-09-10T08:16:25.074Z,2.15
2022-09-10T08:18:52.538Z,3.75
2022-09-10T08:21:20.657Z,2.90
2022-09-10T08:23:56.851Z,2.13
2022-09-10T08:26:26.373Z,3.13
2022-09-10T08:28:58.227Z,3.53
2022-09-10T08:31:26.628Z,3.97
2022-09-10T08:33:56.849Z,3.58
2022-09-10T08:36:25.771Z,2.72
2022-09-10T08:38:59.524Z,3.05
2022-09-10T08:41:39.342Z,3.35
2022-09-10T08:44:42.499Z,5.93
2022-09-10T08:47:25.233Z,4.95
2022-09-10T08:49:58.507Z,3.90
2022-09-10T08:52:42.296Z,4.55
2022-09-10T08:55:18.659Z,3.90
2022-09-10T08:57:48.297Z,5.55
2022-09-10T09:00:25.395Z,4.47
2022-09-10T09:03:05.504Z,6.32
2022-09-10T09:05:54.351Z,5.10
2022-09-10T09:08:28.398Z,2.83
2022-09-10T09:10:55.566Z,4.13
2022-09-10T09:13:38.794Z,3.97
2022-09-10T09:16:37.432Z,4.55
2022-09-10T09:19:35.392Z,3.58
2022-09-10T09:22:21.559Z,3.85
2022-09-10T09:24:58.027Z,3.22
2022-09-10T09:27:32.498Z,3.83
2022-09-10T09:30:06.925Z,3.08
2022-09-10T09:32:40.324Z,3.58
2022-09-10T09:35:38.774Z,4.25
2022-09-10T09:38:14.805Z,3.17
2022-09-10T09:41:12.690Z,2.55
2022-09-10T09:43:58.865Z,3.15
2022-09-10T09:46:26.440Z,2.42
2022-09-10T09:48:59.343Z,3.03
2022-09-10T09:51:32.537Z,5.00
2022-09-10T09:57:00.328Z,3.28
2022-09-10T09:59:36.893Z,3.58
2022-09-10T10:02:15.624Z,3.50
2022-09-10T10:05:25.685Z,2.50
2022-09-10T10:07:53.007Z,2.55
2022-09-10T10:10:28.656Z,2.63
2022-09-10T10:12:57.209Z,3.45
2022-09-10T10:15:44.508Z,3.95
2022-09-10T10:18:24.950Z,4.22
2022-09-10T10:21:29.686Z,3.50
2022-09-10T10:26:45.849Z,3.60
2022-09-10T10:29:21.697Z,3.03
2022-09-10T10:31:51.214Z,6.13
2022-09-10T10:34:57.018Z,3.60
2022-09-10T10:38:01.897Z,4.68
2022-09-10T10:40:57.779Z,4.05
2022-09-10T10:44:09.591Z,8.80
2022-09-10T10:47:06.112Z,2.92
2022-09-10T10:50:16.212Z,2.67
2022-09-10T10:53:08.556Z,2.45
2022-09-10T10:55:47.436Z,3.42
2022-09-10T10:58:26.271Z,2.40
2022-09-10T11:01:05.621Z,3.88
2022-09-10T11:03:51.520Z,1.80
2022-09-10T11:06:25.690Z,1.73
2022-09-10T11:09:10.398Z,2.08
2022-09-10T11:11:52.832Z,1.50
2022-09-10T11:14:23.239Z,1.58
2022-09-10T11:17:02.456Z,3.22
2022-09-10T11:20:29.687Z,1.42
2022-09-10T11:23:34.182Z,2.28
2022-09-10T11:26:15.273Z,1.67
2022-09-10T11:29:23.225Z,2.63
2022-09-10T11:32:43.784Z,2.38
2022-09-10T11:35:39.924Z,2.05
2022-09-10T11:38:53.148Z,1.20
2022-09-10T11:41:26.818Z,2.45
2022-09-10T11:44:37.996Z,1.55
2022-09-10T11:47:25.079Z,2.22
2022-09-10T11:50:23.386Z,2.90
2022-09-10T11:52:51.349Z,2.00
2022-09-10T11:55:18.799Z,1.75
2022-09-10T12:01:49.503Z,1.20
2022-09-10T12:04:59.473Z,2.88
2022-09-10T12:07:53.916Z,1.88
2022-09-10T12:12:55.475Z,1.50
2022-09-10T12:15:27.073Z,1.77
2022-09-10T12:18:15.574Z,1.55
2022-09-10T12:21:09.789Z,1.63
2022-09-10T12:23:40.533Z,1.63
2022-09-10T12:26:16.477Z,2.53
2022-09-10T12:28:43.634Z,2.28
2022-09-10T12:31:15.229Z,1.38
2022-09-10T12:33:45.358Z,3.50
2022-09-10T12:36:36.733Z,3.15
2022-09-10T12:39:27.782Z,2.83
2022-09-10T12:42:29.173Z,1.80
2022-09-10T12:44:56.564Z,1.75
2022-09-10T12:47:43.765Z,1.63
2022-09-10T12:50:30.205Z,2.30
2022-09-10T12:53:47.396Z,3.50
2022-09-10T12:56:54.336Z,2.80
2022-09-10T12:59:30.350Z,1.85
2022-09-10T13:01:59.059Z,2.28
2022-09-10T13:04:38.157Z,1.80
2022-09-10T13:07:21.987Z,2.97
2022-09-10T13:10:21.674Z,2.90
2022-09-10T13:12:57.243Z,8.25
2022-09-10T13:15:29.978Z,2.65
2022-09-10T13:17:57.279Z,5.68
2022-09-10T13:20:27.588Z,4.07
2022-09-10T13:23:09.816Z,4.63
2022-09-10T13:25:43.287Z,2.83
2022-09-10T13:28:30.020Z,2.78
2022-09-10T13:31:10.329Z,1.67
2022-09-10T13:33:52.259Z,2.30
2022-09-10T13:36:57.590Z,2.47
2022-09-10T13:39:37.189Z,2.80
2022-09-10T13:42:25.778Z,2.70
2022-09-10T13:45:33.764Z,2.28
2022-09-10T13:48:03.321Z,4.25
2022-09-10T13:51:02.540Z,4.22
2022-09-10T13:53:31.469Z,5.57
2022-09-10T13:56:14.362Z,4.22
2022-09-10T13:58:49.740Z,3.50
2022-09-10T14:01:17.949Z,3.83
2022-09-10T14:03:45.516Z,4.80
2022-09-10T14:06:21.787Z,4.75
2022-09-10T14:09:03.344Z,4.72
2022-09-10T14:11:35.581Z,4.80
2022-09-10T14:14:18.712Z,4.40
2022-09-10T14:16:54.268Z,4.65
2022-09-10T14:19:33.667Z,6.78
2022-09-10T14:22:01.709Z,3.67
2022-09-10T14:24:33.697Z,3.17
2022-09-10T14:27:32.950Z,2.80
2022-09-10T14:30:18.633Z,2.92
2022-09-10T14:32:48.996Z,2.42
2022-09-10T14:35:43.094Z,2.35
2022-09-10T14:38:34.695Z,2.13
2022-09-10T14:41:26.099Z,2.88
2022-09-10T14:44:29.822Z,3.25
2022-09-10T14:47:08.987Z,3.53
2022-09-10T14:49:39.612Z,3.08
2022-09-10T14:52:08.105Z,2.00
2022-09-10T14:54:35.652Z,2.42
2022-09-10T14:57:13.853Z,3.42
2022-09-10T14:59:44.091Z,4.10
2022-09-10T15:02:28.911Z,3.90
2022-09-10T15:04:57.055Z,2.50
2022-09-10T15:07:24.695Z,2.90
2022-09-10T15:09:58.607Z,2.15
2022-09-10T15:14:57.221Z,3.88
2022-09-10T15:17:24.604Z,2.88
2022-09-10T15:19:52.306Z,2.50
2022-09-10T15:22:26.704Z,4.43
2022-09-10T15:25:11.497Z,5.90
2022-09-10T15:27:39.085Z,3.42
2022-09-10T15:30:07.509Z,3.13
2022-09-10T15:32:34.777Z,4.95
2022-09-10T15:35:03.410Z,1.77
2022-09-10T15:37:30.697Z,2.90
2022-09-10T15:39:58.171Z,4.75
2022-09-10T15:42:25.473Z,3.42
2022-09-10T15:44:52.777Z,2.58
2022-09-10T15:47:20.005Z,3.25
2022-09-10T15:49:47.348Z,2.97
2022-09-10T15:52:14.587Z,3.20
2022-09-10T15:54:43.175Z,10.45
2022-09-10T15:57:10.429Z,2.28
2022-09-10T15:59:37.705Z,3.42
2022-09-10T16:02:06.272Z,2.70
2022-09-10T16:04:36.208Z,3.25
2022-09-10T16:07:05.014Z,3.60
2022-09-10T16:09:32.919Z,3.10
2022-09-10T16:12:00.376Z,5.00
2022-09-10T16:14:27.733Z,3.05
2022-09-10T16:16:54.999Z,2.33
2022-09-10T16:19:22.379Z,2.90
2022-09-10T16:21:50.056Z,3.38
2022-09-10T16:24:17.289Z,2.17
2022-09-10T16:26:45.999Z,2.97
2022-09-10T16:29:16.670Z,2.75
2022-09-10T16:31:48.173Z,3.40
2022-09-10T16:34:18.931Z,2.25
2022-09-10T16:36:51.471Z,3.15
2022-09-10T16:39:20.229Z,2.10
2022-09-10T16:41:50.026Z,4.65
2022-09-10T16:44:19.273Z,2.88
2022-09-10T16:46:47.261Z,4.68
2022-09-10T16:49:18.436Z,6.57
2022-09-10T16:51:47.797Z,6.90
2022-09-10T16:54:15.990Z,1.38
2022-09-10T16:56:46.392Z,3.90
2022-09-10T16:59:23.297Z,2.65
2022-09-10T17:01:52.119Z,2.25
2022-09-10T17:04:27.569Z,4.45
2022-09-10T17:06:56.313Z,2.55
2022-09-10T17:09:24.946Z,2.22
2022-09-10T17:11:52.621Z,3.17
2022-09-10T17:14:19.936Z,1.95
2022-09-10T17:16:48.198Z,2.13
2022-09-10T17:19:23.596Z,3.15
2022-09-10T17:21:55.269Z,2.25
2022-09-10T17:24:26.613Z,4.20
2022-09-10T17:26:55.384Z,2.85
2022-09-10T17:29:25.335Z,2.45
2022-09-10T17:31:53.081Z,3.88
2022-09-10T17:34:21.687Z,2.97
2022-09-10T17:36:49.941Z,2.38
2022-09-10T17:39:18.188Z,2.88
2022-09-10T17:41:46.063Z,3.60
2022-09-10T17:44:14.664Z,3.80
2022-09-10T17:46:42.987Z,3.42
2022-09-10T17:49:13.568Z,1.77
2022-09-10T17:51:41.411Z,4.00
2022-09-10T17:54:08.936Z,2.08
2022-09-10T17:56:38.222Z,3.58
2022-09-10T17:59:06.746Z,1.90
2022-09-10T18:01:40.131Z,3.10
2022-09-10T18:04:09.335Z,4.07
2022-09-10T18:06:37.218Z,3.17
2022-09-10T18:09:06.631Z,4.82
2022-09-10T18:11:40.798Z,4.40
2022-09-10T18:14:12.279Z,5.57
2022-09-10T18:16:39.474Z,5.35
2022-09-10T18:19:14.251Z,5.35
2022-09-10T18:21:44.305Z,8.10
2022-09-10T18:24:14.313Z,3.28
2022-09-10T18:26:44.567Z,5.00
2022-09-10T18:29:22.258Z,6.53
2022-09-10T18:31:53.163Z,3.90
2022-09-10T18:34:27.751Z,4.35
2022-09-10T18:37:01.802Z,5.60
2022-09-10T18:39:32.555Z,5.60
2022-09-10T18:42:03.457Z,5.13
2022-09-10T18:44:34.215Z,5.85
2022-09-10T18:47:01.878Z,5.00
2022-09-10T18:49:29.903Z,4.60
2022-09-10T18:51:57.999Z,5.80
2022-09-10T18:54:31.376Z,8.85
2022-09-10T18:56:59.460Z,6.47
2022-09-10T18:59:28.001Z,7.55
2022-09-10T19:01:56.096Z,5.65
2022-09-10T19:04:29.456Z,5.75
2022-09-10T19:07:00.171Z,4.70
2022-09-10T19:09:31.473Z,5.05
2022-09-10T19:12:02.896Z,5.88
2022-09-10T19:14:35.111Z,7.38
2022-09-10T19:17:03.740Z,9.73
2022-09-10T19:19:33.983Z,8.52
2022-09-10T19:22:06.204Z,15.32
2022-09-10T19:24:54.050Z,18.27
2022-09-10T19:27:22.238Z,16.98
2022-09-10T19:29:50.258Z,13.15
2022-09-10T19:32:19.768Z,10.82
2022-09-10T19:34:55.502Z,9.07
2022-09-10T19:37:22.722Z,7.40
2022-09-10T19:39:50.045Z,6.43
2022-09-10T19:42:17.412Z,4.53
2022-09-10T19:44:44.699Z,4.18
2022-09-10T19:47:11.968Z,4.80
2022-09-10T19:49:39.231Z,4.15
2022-09-10T19:52:06.535Z,4.78
2022-09-10T19:54:33.775Z,3.22
2022-09-10T19:57:01.012Z,6.43
2022-09-10T19:59:28.261Z,3.65
2022-09-10T20:01:55.647Z,4.05
2022-09-10T20:04:23.040Z,5.70
2022-09-10T20:06:50.737Z,4.45
2022-09-10T20:09:18.278Z,7.75
2022-09-10T20:11:45.588Z,5.43
2022-09-10T20:14:14.574Z,4.63
2022-09-10T20:16:44.728Z,6.53
2022-09-10T20:19:18.350Z,3.75
2022-09-10T20:21:46.551Z,5.57
2022-09-10T20:24:14.439Z,7.95
2022-09-10T20:26:43.819Z,5.78
2022-09-10T20:29:14.739Z,8.82
2022-09-10T20:31:43.647Z,8.00
2022-09-10T20:34:17.754Z,4.88
2022-09-10T20:39:15.121Z,7.28
2022-09-10T20:41:43.811Z,6.05
2022-09-10T20:44:14.633Z,5.30
2022-09-10T20:46:42.638Z,5.15
2022-09-10T20:49:12.107Z,6.18
2022-09-10T20:51:41.049Z,7.55
2022-09-10T20:54:13.220Z,7.90
2022-09-10T20:56:40.770Z,10.55
2022-09-10T20:59:08.377Z,7.20
2022-09-10T21:01:35.838Z,6.78
2022-09-10T21:04:04.164Z,6.90
2022-09-10T21:06:34.443Z,8.73
2022-09-10T21:09:02.767Z,9.38
2022-09-10T21:11:33.400Z,8.80
2022-09-10T21:14:03.594Z,7.85
2022-09-10T21:16:36.618Z,7.65
2022-09-10T21:19:11.782Z,8.75
2022-09-10T21:21:41.504Z,8.23
2022-09-10T21:24:20.456Z,6.40
2022-09-10T21:26:49.671Z,6.65
2022-09-10T21:29:22.469Z,4.47
2022-09-10T21:31:55.956Z,4.18
2022-09-10T21:34:24.308Z,7.97
2022-09-10T21:36:52.191Z,6.82
2022-09-10T21:39:20.541Z,4.75
2022-09-10T21:41:50.853Z,4.25
2022-09-10T21:44:23.625Z,5.47
2022-09-10T21:46:52.076Z,5.72
2022-09-10T21:49:21.046Z,4.20
2022-09-10T21:51:48.891Z,5.65
2022-09-10T21:54:22.262Z,5.30
2022-09-10T21:56:51.219Z,3.20
2022-09-10T21:59:21.491Z,4.03
2022-09-10T22:01:49.641Z,3.80
2022-09-10T22:04:22.211Z,4.28
2022-09-10T22:06:51.128Z,4.23
2022-09-10T22:09:19.923Z,5.25
2022-09-10T22:11:51.330Z,4.45
2022-09-10T22:14:21.901Z,3.40
2022-09-10T22:16:50.344Z,3.28
2022-09-10T22:19:24.586Z,3.75
2022-09-10T22:21:54.279Z,3.92
2022-09-10T22:24:22.303Z,8.45
2022-09-10T22:26:49.663Z,8.25
2022-09-10T22:29:19.355Z,7.95
2022-09-10T22:31:47.789Z,7.00
2022-09-10T22:34:17.451Z,6.45
2022-09-10T22:36:46.809Z,6.22
2022-09-10T22:39:22.312Z,5.47
2022-09-10T22:41:51.239Z,6.68
2022-09-10T22:44:19.953Z,5.30
2022-09-10T22:46:47.561Z,5.15
2022-09-10T22:49:16.182Z,6.72
2022-09-10T22:51:44.092Z,7.40
2022-09-10T22:54:11.714Z,5.13
2022-09-10T22:56:39.740Z,7.03
2022-09-10T22:59:10.045Z,9.85
2022-09-10T23:01:38.559Z,4.65
2022-09-10T23:04:08.298Z,6.53
2022-09-10T23:06:38.646Z,4.80
2022-09-10T23:09:16.989Z,4.95
2022-09-10T23:11:45.581Z,3.85
2022-09-10T23:14:19.255Z,3.70
2022-09-10T23:16:49.850Z,5.82
2022-09-10T23:19:21.566Z,4.43
2022-09-10T23:21:52.669Z,2.95
2022-09-10T23:24:24.451Z,5.65
2022-09-10T23:27:04.785Z,4.53
2022-09-10T23:29:32.098Z,5.75
2022-09-10T23:31:59.336Z,3.30
2022-09-10T23:34:26.625Z,5.25
2022-09-10T23:36:54.591Z,3.10
2022-09-10T23:39:24.419Z,5.15
2022-09-10T23:41:55.572Z,4.18
2022-09-10T23:44:23.589Z,4.43
2022-09-10T23:46:50.911Z,5.28
2022-09-10T23:49:18.238Z,4.20
2022-09-10T23:51:46.006Z,4.43
2022-09-10T23:54:13.622Z,4.18
2022-09-10T23:56:41.158Z,4.35
2022-09-10T23:59:10.070Z,3.78
